Akogare — JPDL — position and weather

sailwx.info

Track history (hours):
 
Tides and Currents Weather Stations Pressure Air Temp Water Temp Dewpoint Dewpoint Depression Visibility Wind Speed Wind Dir Waves Ship Positions

Akogare (Japan)

Ship's website: http://www.akogare.or.jp/eng/top.html

Last reported at 2020-Aug-13 10:00 UTC. Time now 2020-Aug-13 11:29 UTC.
Position N 34°39' E 135°11'.

Length 52 m; draft 4.5 m.

Type: Sailing vessel. MMSI: 431005001.

Date/timePositionNaut miles runAvg speedWind from/ knotsBaromVisibWave heightAir tempDewpointWater temp
2020-Aug-13 10:00N 34°39' E 135°11'2 1.5
2020-Aug-13 08:30N 34°41' E 135°11'2 1.5
2020-Aug-13 07:30N 34°39' E 135°11'2 1.5
2020-Aug-13 06:30N 34°41' E 135°11'2 4.5
2020-Aug-13 06:00N 34°39' E 135°11'2 2.3
2020-Aug-13 04:59N 34°41' E 135°11'0 0.0
2020-Aug-13 02:59N 34°41' E 135°11'0 0.0
2020-Aug-13 02:29N 34°41' E 135°11'0 0.0
2020-Aug-13 00:29N 34°41' E 135°11'0 0.1
2020-Aug-12 22:49N 34°41' E 135°11'0 0.0
2020-Aug-12 21:25N 34°41' E 135°11'0 0.0
2020-Aug-12 20:55N 34°41' E 135°11'0 0.1
2020-Aug-12 20:25N 34°41' E 135°11'0 0.0
2020-Aug-12 16:43N 34°41' E 135°11'0 0.0
2020-Aug-12 14:55N 34°41' E 135°11'0 0.0
2020-Aug-12 13:55N 34°41' E 135°11'0 0.0
2020-Aug-12 12:25N 34°41' E 135°11'0 0.0
2020-Aug-12 10:25N 34°41' E 135°11'0 0.0
2020-Aug-12 09:55N 34°41' E 135°11'0 0.0
2020-Aug-12 07:49N 34°41' E 135°11'0 0.0
2020-Aug-12 06:25N 34°41' E 135°11'0 0.0
2020-Aug-12 02:55N 34°41' E 135°11'0 0.1
2020-Aug-12 02:25N 34°41' E 135°11'0 0.0
2020-Aug-11 23:30N 34°41' E 135°11'0 0.1
2020-Aug-11 22:54N 34°41' E 135°11'0 0.0
2020-Aug-11 21:30N 34°41' E 135°11'0 0.1
2020-Aug-11 21:00N 34°41' E 135°11'0 0.0
2020-Aug-11 20:00N 34°41' E 135°11'0 0.0
2020-Aug-11 17:24N 34°41' E 135°11'0 0.0
2020-Aug-11 13:00N 34°41' E 135°11'0 0.0
2020-Aug-11 11:30N 34°41' E 135°11'0 0.0
2020-Aug-11 10:00N 34°41' E 135°11'0 0.0
2020-Aug-11 09:30N 34°41' E 135°11'0 0.0
2020-Aug-11 07:00N 34°41' E 135°11'0 0.0
2020-Aug-11 05:54N 34°41' E 135°11'0 0.1
2020-Aug-11 05:00N 34°41' E 135°11'8 2.0
2020-Aug-11 01:00N 34°35' E 135°04'6 5.9
2020-Aug-10 23:58N 34°36' E 134°57'17 6.8
2020-Aug-10 21:28N 34°45' E 134°39'2 0.5
2020-Aug-10 17:45N 34°47' E 134°39'0 0.0
2020-Aug-10 12:30N 34°47' E 134°39'0 0.0
2020-Aug-10 09:00N 34°47' E 134°39'0 0.0
2020-Aug-10 08:24N 34°47' E 134°39'7 0.8
2020-Aug-10 00:25N 34°42' E 134°34'5 5.6
2020-Aug-09 23:29N 34°45' E 134°39'2 0.5
2020-Aug-09 19:58N 34°47' E 134°39'0 0.0
2020-Aug-09 18:22N 34°47' E 134°39'0 0.0
2020-Aug-09 16:28N 34°47' E 134°39'0 0.0
2020-Aug-09 14:58N 34°47' E 134°39'0 0.0
2020-Aug-09 12:28N 34°47' E 134°39'0 0.0
2020-Aug-09 10:58N 34°47' E 134°39'3 1.6
2020-Aug-09 09:22N 34°45' E 134°37'25 6.1
2020-Aug-09 05:16N 34°36' E 134°09'3 0.1
2020-Aug-08 05:00N 34°36' E 134°12'2 2.5
2020-Aug-08 04:00N 34°37' E 134°09'  
Track history (hours):
 
Tides and Currents Weather Stations Pressure Air Temp Water Temp Dewpoint Dewpoint Depression Visibility Wind Speed Wind Dir Waves Ship Positions

Akogare (Japan)

Ship's website: http://www.akogare.or.jp/eng/top.html

Last reported at 2020-Aug-13 10:00 UTC. Time now 2020-Aug-13 11:29 UTC.
Position N 34°39' E 135°11'.

Length 52 m; draft 4.5 m.

Type: Sailing vessel. MMSI: 431005001.

Date/timePositionNaut miles runAvg speedWind from/ knotsBaromVisibWave heightAir tempDewpointWater temp
2020-Aug-13 10:00N 34°39' E 135°11'2 1.5
2020-Aug-13 08:30N 34°41' E 135°11'2 1.5
2020-Aug-13 07:30N 34°39' E 135°11'2 1.5
2020-Aug-13 06:30N 34°41' E 135°11'2 4.5
2020-Aug-13 06:00N 34°39' E 135°11'2 2.3
2020-Aug-13 04:59N 34°41' E 135°11'0 0.0
2020-Aug-13 02:59N 34°41' E 135°11'0 0.0
2020-Aug-13 02:29N 34°41' E 135°11'0 0.0
2020-Aug-13 00:29N 34°41' E 135°11'0 0.1
2020-Aug-12 22:49N 34°41' E 135°11'0 0.0
2020-Aug-12 21:25N 34°41' E 135°11'0 0.0
2020-Aug-12 20:55N 34°41' E 135°11'0 0.1
2020-Aug-12 20:25N 34°41' E 135°11'0 0.0
2020-Aug-12 16:43N 34°41' E 135°11'0 0.0
2020-Aug-12 14:55N 34°41' E 135°11'0 0.0
2020-Aug-12 13:55N 34°41' E 135°11'0 0.0
2020-Aug-12 12:25N 34°41' E 135°11'0 0.0
2020-Aug-12 10:25N 34°41' E 135°11'0 0.0
2020-Aug-12 09:55N 34°41' E 135°11'0 0.0
2020-Aug-12 07:49N 34°41' E 135°11'0 0.0
2020-Aug-12 06:25N 34°41' E 135°11'0 0.0
2020-Aug-12 02:55N 34°41' E 135°11'0 0.1
2020-Aug-12 02:25N 34°41' E 135°11'0 0.0
2020-Aug-11 23:30N 34°41' E 135°11'0 0.1
2020-Aug-11 22:54N 34°41' E 135°11'0 0.0
2020-Aug-11 21:30N 34°41' E 135°11'0 0.1
2020-Aug-11 21:00N 34°41' E 135°11'0 0.0
2020-Aug-11 20:00N 34°41' E 135°11'0 0.0
2020-Aug-11 17:24N 34°41' E 135°11'0 0.0
2020-Aug-11 13:00N 34°41' E 135°11'0 0.0
2020-Aug-11 11:30N 34°41' E 135°11'0 0.0
2020-Aug-11 10:00N 34°41' E 135°11'0 0.0
2020-Aug-11 09:30N 34°41' E 135°11'0 0.0
2020-Aug-11 07:00N 34°41' E 135°11'0 0.0
2020-Aug-11 05:54N 34°41' E 135°11'0 0.1
2020-Aug-11 05:00N 34°41' E 135°11'8 2.0
2020-Aug-11 01:00N 34°35' E 135°04'6 5.9
2020-Aug-10 23:58N 34°36' E 134°57'17 6.8
2020-Aug-10 21:28N 34°45' E 134°39'2 0.5
2020-Aug-10 17:45N 34°47' E 134°39'0 0.0
2020-Aug-10 12:30N 34°47' E 134°39'0 0.0
2020-Aug-10 09:00N 34°47' E 134°39'0 0.0
2020-Aug-10 08:24N 34°47' E 134°39'7 0.8
2020-Aug-10 00:25N 34°42' E 134°34'5 5.6
2020-Aug-09 23:29N 34°45' E 134°39'2 0.5
2020-Aug-09 19:58N 34°47' E 134°39'0 0.0
2020-Aug-09 18:22N 34°47' E 134°39'0 0.0
2020-Aug-09 16:28N 34°47' E 134°39'0 0.0
2020-Aug-09 14:58N 34°47' E 134°39'0 0.0
2020-Aug-09 12:28N 34°47' E 134°39'0 0.0
2020-Aug-09 10:58N 34°47' E 134°39'3 1.6
2020-Aug-09 09:22N 34°45' E 134°37'25 6.1
2020-Aug-09 05:16N 34°36' E 134°09'3 0.1
2020-Aug-08 05:00N 34°36' E 134°12'2 2.5
2020-Aug-08 04:00N 34°37' E 134°09'  

Dump ship's entire track history